Time;durP1;ratioP1;P1;durP2;ratioP2;P2;SDS_P1;SDS_P2;PMS_P1;PMS_P2;Temp;Humidity;BMP_temperature;BMP_pressure;BME280_temperature;BME280_humidity;BME280_pressure;Samples;Min_cycle;Max_cycle;Signal;HPM_P1;HPM_P2
2022/04/27 00:00:58;;;;;;;;;;;11.40;53.20;;;;;;4976820;28;19926;-87
2022/04/27 00:03:23;;;;;;;;;;;11.40;53.30;;;;;;4994832;28;19914;-87
2022/04/27 00:05:49;;;;;;;;;;;11.30;53.40;;;;;;4996423;28;19922;-87
2022/04/27 00:08:14;;;;;;;;;;;11.30;53.40;;;;;;4994442;28;20373;-87
2022/04/27 00:10:40;;;;;;;;;;;11.30;53.20;;;;;;4981426;28;19925;-86
2022/04/27 00:13:05;;;;;;;;;;;11.20;53.10;;;;;;4970341;28;19918;-86
2022/04/27 00:15:31;;;;;;;;;;;11.20;53.20;;;;;;4974666;28;20417;-86
2022/04/27 00:17:56;;;;;;;;;;;11.10;53.50;;;;;;4975183;28;19917;-86
2022/04/27 00:20:22;;;;;;;;;;;11.10;53.50;;;;;;4993206;28;20388;-87
2022/04/27 00:22:47;;;;;;;;;;;11.10;53.40;;;;;;4987684;28;19914;-87
2022/04/27 00:25:13;;;;;;;;;;;11.00;53.40;;;;;;4972548;28;19918;-87
2022/04/27 00:27:38;;;;;;;;;;;10.90;53.20;;;;;;4977667;28;20020;-86
2022/04/27 00:30:04;;;;;;;;;;;10.90;53.20;;;;;;4994456;28;20313;-87
2022/04/27 00:32:29;;;;;;;;;;;10.80;53.20;;;;;;4985698;28;19930;-86
2022/04/27 00:34:55;;;;;;;;;;;10.70;53.30;;;;;;4978938;28;19968;-87
2022/04/27 00:37:20;;;;;;;;;;;10.70;53.30;;;;;;4976944;28;19967;-86
2022/04/27 00:39:46;;;;;;;;;;;10.60;53.50;;;;;;4990935;28;20013;-87
2022/04/27 00:42:12;;;;;;;;;;;10.50;53.50;;;;;;4995211;28;19933;-86
2022/04/27 00:44:38;;;;;;;;;;;10.50;53.50;;;;;;4969051;28;19937;-87
2022/04/27 00:47:04;;;;;;;;;;;10.40;53.50;;;;;;4994527;28;19918;-87
2022/04/27 00:49:29;;;;;;;;;;;10.40;53.40;;;;;;4992412;28;19972;-87
2022/04/27 00:51:55;;;;;;;;;;;10.30;53.60;;;;;;4971800;28;19918;-86
2022/04/27 00:54:22;;;;;;;;;;;10.30;53.80;;;;;;4975490;28;19921;-87
2022/04/27 00:56:51;;;;;;;;;;;10.20;54.00;;;;;;4993027;28;20425;-87
2022/04/27 00:59:17;;;;;;;;;;;10.20;54.40;;;;;;4990402;28;19914;-86
2022/04/27 01:01:43;;;;;;;;;;;10.20;54.50;;;;;;4992538;28;19947;-87
2022/04/27 01:04:08;;;;;;;;;;;10.20;54.80;;;;;;4992253;28;19945;-87
2022/04/27 01:06:34;;;;;;;;;;;10.20;54.80;;;;;;4995007;28;20008;-86
2022/04/27 01:09:00;;;;;;;;;;;10.20;54.60;;;;;;4974700;28;19968;-87
2022/04/27 01:11:26;;;;;;;;;;;10.20;54.60;;;;;;4988649;28;19918;-86
2022/04/27 01:13:51;;;;;;;;;;;10.20;54.50;;;;;;4993668;28;19929;-86
2022/04/27 01:16:17;;;;;;;;;;;10.20;54.50;;;;;;4974532;28;19918;-86
2022/04/27 01:18:43;;;;;;;;;;;10.10;54.50;;;;;;4992656;28;20266;-86
2022/04/27 01:21:09;;;;;;;;;;;10.10;54.30;;;;;;4973430;28;19937;-86
2022/04/27 01:23:34;;;;;;;;;;;10.10;54.20;;;;;;4972265;28;19926;-87
2022/04/27 01:26:05;;;;;;;;;;;10.00;54.10;;;;;;4976919;28;19965;-87
2022/04/27 01:28:31;;;;;;;;;;;10.00;54.20;;;;;;4990376;28;19921;-86
2022/04/27 01:31:00;;;;;;;;;;;9.90;54.10;;;;;;4993073;28;19918;-87
2022/04/27 01:33:26;;;;;;;;;;;9.90;54.20;;;;;;4991706;28;19924;-86
2022/04/27 01:35:51;;;;;;;;;;;9.80;54.20;;;;;;4992975;28;20000;-86
2022/04/27 01:38:18;;;;;;;;;;;9.80;54.20;;;;;;4992646;28;20273;-86
2022/04/27 01:40:45;;;;;;;;;;;9.80;54.50;;;;;;4991010;28;19922;-86
2022/04/27 01:43:11;;;;;;;;;;;9.80;54.40;;;;;;4972238;28;19918;-87
2022/04/27 01:45:37;;;;;;;;;;;9.70;54.30;;;;;;4992662;28;19944;-86
2022/04/27 01:48:06;;;;;;;;;;;9.70;54.30;;;;;;4974971;28;19918;-86
2022/04/27 01:50:31;;;;;;;;;;;9.60;54.30;;;;;;4988728;28;19921;-86
2022/04/27 01:55:40;;;;;;;;;;;9.50;54.40;;;;;;4990869;28;19921;-86
2022/04/27 01:58:06;;;;;;;;;;;9.50;54.40;;;;;;4973329;28;19913;-86
2022/04/27 02:00:31;;;;;;;;;;;9.40;54.50;;;;;;4991567;28;19925;-86
2022/04/27 02:02:57;;;;;;;;;;;9.40;54.50;;;;;;4977077;28;19925;-86
2022/04/27 02:05:22;;;;;;;;;;;9.40;54.40;;;;;;4971125;28;19999;-86
2022/04/27 02:07:48;;;;;;;;;;;9.40;54.40;;;;;;4975503;28;20366;-87
2022/04/27 02:10:13;;;;;;;;;;;9.30;54.30;;;;;;4978684;28;19914;-86
2022/04/27 02:12:39;;;;;;;;;;;9.30;54.30;;;;;;4978023;28;19924;-86
2022/04/27 02:15:04;;;;;;;;;;;9.30;54.30;;;;;;4997744;28;19914;-86
2022/04/27 02:17:30;;;;;;;;;;;9.30;54.40;;;;;;4997568;28;19918;-85
2022/04/27 02:19:56;;;;;;;;;;;9.30;54.30;;;;;;4985879;28;19940;-86
2022/04/27 02:22:21;;;;;;;;;;;9.30;54.40;;;;;;4985556;28;19922;-87
2022/04/27 02:24:47;;;;;;;;;;;9.30;54.30;;;;;;4978984;28;19914;-86
2022/04/27 02:27:12;;;;;;;;;;;9.20;54.30;;;;;;4979257;28;19922;-86
2022/04/27 02:29:37;;;;;;;;;;;9.20;54.30;;;;;;4997306;28;19917;-86
2022/04/27 02:32:03;;;;;;;;;;;9.20;54.30;;;;;;4997511;28;19972;-87
2022/04/27 02:34:29;;;;;;;;;;;9.10;54.30;;;;;;4979739;28;19960;-87
2022/04/27 02:36:54;;;;;;;;;;;9.10;54.30;;;;;;4980107;28;19925;-87
2022/04/27 02:39:19;;;;;;;;;;;9.10;54.30;;;;;;4979858;28;20043;-86
2022/04/27 02:41:45;;;;;;;;;;;9.10;54.50;;;;;;4979573;28;20046;-86
2022/04/27 02:44:10;;;;;;;;;;;9.00;54.60;;;;;;4996794;28;19918;-86
2022/04/27 02:46:37;;;;;;;;;;;9.10;54.60;;;;;;4979396;28;19924;-86
2022/04/27 02:51:53;;;;;;;;;;;8.90;54.50;;;;;;4997774;28;20401;-87
2022/04/27 02:54:20;;;;;;;;;;;8.90;54.70;;;;;;4996974;28;19924;-87
2022/04/27 02:56:46;;;;;;;;;;;8.90;54.70;;;;;;4979566;28;20266;-87
2022/04/27 02:59:11;;;;;;;;;;;8.80;54.70;;;;;;4980521;28;19918;-87
2022/04/27 03:01:38;;;;;;;;;;;8.80;54.60;;;;;;4979057;28;19922;-87
2022/04/27 03:04:04;;;;;;;;;;;8.80;54.60;;;;;;4979298;28;19998;-87
2022/04/27 03:06:29;;;;;;;;;;;8.80;54.60;;;;;;4996402;28;19922;-88
2022/04/27 03:08:55;;;;;;;;;;;8.70;54.60;;;;;;4978755;28;19921;-88
2022/04/27 03:11:20;;;;;;;;;;;8.70;54.60;;;;;;4996764;28;19940;-88
2022/04/27 03:13:46;;;;;;;;;;;8.70;54.70;;;;;;4995482;28;19981;-88
2022/04/27 03:16:11;;;;;;;;;;;8.70;54.70;;;;;;4995292;28;19913;-88
2022/04/27 03:18:37;;;;;;;;;;;8.70;54.70;;;;;;4996587;28;19918;-88
2022/04/27 03:21:03;;;;;;;;;;;8.70;54.70;;;;;;4995775;28;20366;-87
2022/04/27 03:23:29;;;;;;;;;;;8.70;54.70;;;;;;4997577;28;19917;-87
2022/04/27 03:25:55;;;;;;;;;;;8.70;54.80;;;;;;4979786;28;19951;-88
2022/04/27 03:28:21;;;;;;;;;;;8.60;54.70;;;;;;4996385;28;20044;-86
2022/04/27 03:30:48;;;;;;;;;;;8.60;54.80;;;;;;4995631;28;19918;-87
2022/04/27 03:33:14;;;;;;;;;;;8.60;54.90;;;;;;4975513;28;19922;-87
2022/04/27 03:35:39;;;;;;;;;;;8.60;54.80;;;;;;4993886;28;19922;-87
2022/04/27 03:38:07;;;;;;;;;;;8.60;54.80;;;;;;4995345;28;19925;-87
2022/04/27 03:40:32;;;;;;;;;;;8.60;54.80;;;;;;4995422;28;19945;-87
2022/04/27 03:42:58;;;;;;;;;;;8.60;54.80;;;;;;4995218;28;19925;-87
2022/04/27 03:45:23;;;;;;;;;;;8.60;54.90;;;;;;4978377;28;19945;-87
2022/04/27 03:47:49;;;;;;;;;;;8.60;55.00;;;;;;4995134;28;19918;-87
2022/04/27 03:50:15;;;;;;;;;;;8.60;55.00;;;;;;4995888;28;20289;-87
2022/04/27 03:52:41;;;;;;;;;;;8.60;55.10;;;;;;4974564;28;20422;-86
2022/04/27 03:55:07;;;;;;;;;;;8.60;55.10;;;;;;4977481;28;20000;-86
2022/04/27 03:57:32;;;;;;;;;;;8.60;55.20;;;;;;4970848;28;19941;-85
2022/04/27 03:59:58;;;;;;;;;;;8.60;55.40;;;;;;4977646;28;19940;-86
2022/04/27 04:02:23;;;;;;;;;;;8.70;55.40;;;;;;4995255;28;19925;-87
2022/04/27 04:04:48;;;;;;;;;;;8.70;55.50;;;;;;4994416;28;19961;-86
2022/04/27 04:07:14;;;;;;;;;;;8.80;55.80;;;;;;4993991;28;19918;-87
2022/04/27 04:09:40;;;;;;;;;;;8.80;55.80;;;;;;4985551;28;19918;-87
2022/04/27 04:12:06;;;;;;;;;;;8.90;55.90;;;;;;4978759;28;19920;-88
2022/04/27 04:14:31;;;;;;;;;;;9.10;55.90;;;;;;4996320;28;19925;-88
2022/04/27 04:16:57;;;;;;;;;;;9.20;56.10;;;;;;4996225;28;19917;-86
2022/04/27 04:19:22;;;;;;;;;;;9.30;56.20;;;;;;4978937;28;19941;-87
2022/04/27 04:21:48;;;;;;;;;;;9.40;56.20;;;;;;4978416;28;19984;-86
2022/04/27 04:24:13;;;;;;;;;;;9.50;56.20;;;;;;4995390;28;20013;-87
2022/04/27 04:29:24;;;;;;;;;;;9.70;56.00;;;;;;4995774;28;20369;-87
2022/04/27 04:31:49;;;;;;;;;;;9.80;55.90;;;;;;4996102;28;19910;-87
2022/04/27 04:34:15;;;;;;;;;;;9.80;55.80;;;;;;4996564;28;19918;-87
2022/04/27 04:36:40;;;;;;;;;;;9.80;55.70;;;;;;4996137;28;19917;-87
2022/04/27 04:39:06;;;;;;;;;;;9.80;55.70;;;;;;4975384;28;20301;-87
2022/04/27 04:41:31;;;;;;;;;;;9.80;55.70;;;;;;4973576;28;19925;-87
2022/04/27 04:43:57;;;;;;;;;;;9.80;55.70;;;;;;4994390;28;19924;-87
2022/04/27 04:46:22;;;;;;;;;;;9.80;55.70;;;;;;4993064;28;19956;-87
2022/04/27 04:48:48;;;;;;;;;;;9.80;55.70;;;;;;4993142;28;19960;-87
2022/04/27 04:51:13;;;;;;;;;;;9.80;55.80;;;;;;4989687;28;20386;-85
2022/04/27 04:53:38;;;;;;;;;;;9.80;55.80;;;;;;4977202;28;19922;-87
2022/04/27 04:56:04;;;;;;;;;;;9.80;55.80;;;;;;4989711;28;19917;-87
2022/04/27 04:58:29;;;;;;;;;;;9.80;55.90;;;;;;4991998;28;20004;-87
2022/04/27 05:00:55;;;;;;;;;;;9.80;55.90;;;;;;4995604;28;19917;-88
2022/04/27 05:03:20;;;;;;;;;;;9.80;56.20;;;;;;4978199;28;19922;-86
2022/04/27 05:05:46;;;;;;;;;;;9.90;56.40;;;;;;4994898;28;19929;-86
2022/04/27 05:08:11;;;;;;;;;;;10.00;56.40;;;;;;4977951;28;20024;-88
2022/04/27 05:10:37;;;;;;;;;;;10.00;56.50;;;;;;4978489;28;20281;-86
2022/04/27 05:13:03;;;;;;;;;;;10.10;56.60;;;;;;4978237;28;19921;-87
2022/04/27 05:15:28;;;;;;;;;;;10.20;56.70;;;;;;4995655;28;19937;-86
2022/04/27 05:17:54;;;;;;;;;;;10.30;56.80;;;;;;4995773;28;19917;-87
2022/04/27 05:20:22;;;;;;;;;;;10.30;56.80;;;;;;4995709;28;19944;-87
2022/04/27 05:22:48;;;;;;;;;;;10.40;56.70;;;;;;4996069;28;19928;-87
2022/04/27 05:25:13;;;;;;;;;;;10.50;56.70;;;;;;4978464;28;20309;-87
2022/04/27 05:27:39;;;;;;;;;;;10.60;56.70;;;;;;4978183;28;19968;-88
2022/04/27 05:32:49;;;;;;;;;;;10.80;56.70;;;;;;4996583;28;19924;-86
2022/04/27 05:35:15;;;;;;;;;;;10.80;56.80;;;;;;4978811;28;20004;-86
2022/04/27 05:37:41;;;;;;;;;;;10.90;56.80;;;;;;4978772;28;19925;-88
2022/04/27 05:40:07;;;;;;;;;;;11.00;56.80;;;;;;4981238;28;20447;-88
2022/04/27 05:42:32;;;;;;;;;;;11.10;56.90;;;;;;4981469;28;20012;-88
2022/04/27 05:44:58;;;;;;;;;;;11.20;56.90;;;;;;4981583;28;19996;-88
2022/04/27 05:47:25;;;;;;;;;;;11.40;56.80;;;;;;4998523;28;19916;-88
2022/04/27 05:49:50;;;;;;;;;;;11.60;56.80;;;;;;4980844;28;20384;-89
2022/04/27 05:52:16;;;;;;;;;;;11.70;56.80;;;;;;4981067;28;20004;-88
2022/04/27 05:54:42;;;;;;;;;;;11.90;56.70;;;;;;4998768;28;19918;-88
2022/04/27 05:57:07;;;;;;;;;;;12.10;56.80;;;;;;4999101;28;19917;-88
2022/04/27 05:59:33;;;;;;;;;;;12.20;56.90;;;;;;4998450;28;19972;-88
2022/04/27 06:01:59;;;;;;;;;;;12.30;57.00;;;;;;4999000;28;19925;-88
2022/04/27 06:04:26;;;;;;;;;;;12.50;57.10;;;;;;4999663;28;19914;-87
2022/04/27 06:06:55;;;;;;;;;;;12.70;57.40;;;;;;4970620;28;20008;-87
2022/04/27 06:09:20;;;;;;;;;;;12.80;57.50;;;;;;4988486;28;19918;-88
2022/04/27 06:11:46;;;;;;;;;;;13.10;57.70;;;;;;5003781;28;19918;-88
2022/04/27 06:14:12;;;;;;;;;;;13.30;57.80;;;;;;4980898;28;20247;-88
2022/04/27 06:16:37;;;;;;;;;;;13.50;57.90;;;;;;4980898;28;19936;-88
2022/04/27 06:19:03;;;;;;;;;;;13.70;58.30;;;;;;4998497;28;19928;-89
2022/04/27 06:21:31;;;;;;;;;;;14.00;58.70;;;;;;4999098;28;20414;-88
2022/04/27 06:23:57;;;;;;;;;;;14.30;58.70;;;;;;4978195;28;19914;-87
2022/04/27 06:26:23;;;;;;;;;;;14.50;58.70;;;;;;4994465;28;19925;-87
2022/04/27 06:28:48;;;;;;;;;;;14.80;59.30;;;;;;4980346;28;19918;-89
2022/04/27 06:31:14;;;;;;;;;;;15.30;60.60;;;;;;4994020;28;19914;-87
2022/04/27 06:33:39;;;;;;;;;;;16.00;61.70;;;;;;4998613;28;19925;-88
2022/04/27 06:36:05;;;;;;;;;;;16.70;62.10;;;;;;4998464;28;19936;-88
2022/04/27 06:38:30;;;;;;;;;;;17.50;62.20;;;;;;4983673;28;19918;-87
2022/04/27 06:40:56;;;;;;;;;;;18.40;61.90;;;;;;4998423;28;19929;-88
2022/04/27 06:43:21;;;;;;;;;;;19.20;60.80;;;;;;4997942;28;20270;-89
2022/04/27 06:45:47;;;;;;;;;;;19.90;59.40;;;;;;4998233;28;19964;-88
2022/04/27 06:48:12;;;;;;;;;;;20.70;58.10;;;;;;4997937;28;19922;-88
2022/04/27 06:50:38;;;;;;;;;;;21.40;56.70;;;;;;4979143;28;19964;-89
2022/04/27 06:53:04;;;;;;;;;;;22.20;56.30;;;;;;4980209;28;19918;-88
2022/04/27 06:55:30;;;;;;;;;;;22.90;55.50;;;;;;4981396;28;19921;-88
2022/04/27 06:57:56;;;;;;;;;;;23.60;54.50;;;;;;4999350;28;19918;-89
2022/04/27 07:00:21;;;;;;;;;;;24.20;50.90;;;;;;4997766;28;19921;-89
2022/04/27 07:02:47;;;;;;;;;;;24.80;49.90;;;;;;5000185;28;19922;-89
2022/04/27 07:05:17;;;;;;;;;;;25.40;48.30;;;;;;4981235;28;19928;-89
2022/04/27 07:07:46;;;;;;;;;;;25.90;46.50;;;;;;4978146;28;19922;-89
2022/04/27 07:10:12;;;;;;;;;;;26.30;45.90;;;;;;4994347;28;20290;-88
2022/04/27 07:12:38;;;;;;;;;;;26.70;43.60;;;;;;4994398;28;19921;-89
2022/04/27 07:15:04;;;;;;;;;;;27.10;41.40;;;;;;4996094;28;19921;-88
2022/04/27 07:17:30;;;;;;;;;;;27.50;38.90;;;;;;4978444;28;19924;-89
2022/04/27 07:19:56;;;;;;;;;;;27.80;39.00;;;;;;4983755;28;19918;-89
2022/04/27 07:22:22;;;;;;;;;;;28.30;38.10;;;;;;4995205;28;19921;-88
2022/04/27 07:24:49;;;;;;;;;;;28.50;36.40;;;;;;4994800;28;19921;-88
2022/04/27 07:27:15;;;;;;;;;;;28.70;35.20;;;;;;4995727;28;19944;-88
2022/04/27 07:29:40;;;;;;;;;;;28.80;31.90;;;;;;4981340;28;19926;-87
2022/04/27 07:32:06;;;;;;;;;;;29.00;31.70;;;;;;4994776;28;19914;-88
2022/04/27 07:34:31;;;;;;;;;;;29.30;32.10;;;;;;4996298;28;19918;-88
2022/04/27 07:36:58;;;;;;;;;;;29.50;30.10;;;;;;4996360;28;19922;-89
2022/04/27 07:39:26;;;;;;;;;;;29.70;30.00;;;;;;5000260;28;20381;-89
2022/04/27 07:41:52;;;;;;;;;;;29.80;28.80;;;;;;4996110;28;19922;-88
2022/04/27 07:44:17;;;;;;;;;;;29.90;27.70;;;;;;4983742;28;19923;-88
2022/04/27 07:46:47;;;;;;;;;;;30.20;27.60;;;;;;4977366;28;19929;-88
2022/04/27 07:49:13;;;;;;;;;;;30.30;27.20;;;;;;5000159;28;20017;-89
2022/04/27 07:51:38;;;;;;;;;;;30.50;27.80;;;;;;4978310;28;19949;-88
2022/04/27 07:54:04;;;;;;;;;;;30.80;27.90;;;;;;5006202;28;19949;-88
2022/04/27 07:56:30;;;;;;;;;;;31.10;28.20;;;;;;5003186;28;19926;-89
2022/04/27 07:58:55;;;;;;;;;;;31.30;26.80;;;;;;4970680;28;20503;-89
2022/04/27 08:01:22;;;;;;;;;;;31.50;26.50;;;;;;4983929;28;19941;-89
2022/04/27 08:03:48;;;;;;;;;;;31.80;26.40;;;;;;4983451;28;19909;-90
2022/04/27 08:06:15;;;;;;;;;;;32.10;26.40;;;;;;4984252;28;19936;-87
2022/04/27 08:08:41;;;;;;;;;;;32.40;26.20;;;;;;4992803;28;19922;-89
2022/04/27 08:11:07;;;;;;;;;;;32.80;26.10;;;;;;4996242;28;19913;-88
2022/04/27 08:13:33;;;;;;;;;;;33.10;25.60;;;;;;4994921;28;19914;-88
2022/04/27 08:15:59;;;;;;;;;;;33.30;25.10;;;;;;4997809;28;19941;-89
2022/04/27 08:18:24;;;;;;;;;;;33.50;23.60;;;;;;4996147;28;19914;-88
2022/04/27 08:23:34;;;;;;;;;;;33.70;23.60;;;;;;4997122;28;19929;-88
2022/04/27 08:26:00;;;;;;;;;;;33.90;23.00;;;;;;4996613;28;20414;-88
2022/04/27 08:28:27;;;;;;;;;;;34.10;22.30;;;;;;4996324;28;19910;-89
2022/04/27 08:30:53;;;;;;;;;;;34.20;21.40;;;;;;4994449;28;19920;-89
2022/04/27 08:33:19;;;;;;;;;;;34.30;22.10;;;;;;4978140;28;19957;-88
2022/04/27 08:35:45;;;;;;;;;;;34.40;20.80;;;;;;4979107;28;19917;-90
2022/04/27 08:38:11;;;;;;;;;;;34.40;20.10;;;;;;4997018;28;19956;-88
2022/04/27 08:40:40;;;;;;;;;;;34.40;20.50;;;;;;4993799;28;19930;-88
2022/04/27 08:43:06;;;;;;;;;;;34.50;21.10;;;;;;4983474;28;19971;-89
2022/04/27 08:45:33;;;;;;;;;;;34.80;21.20;;;;;;4996957;28;19917;-88
2022/04/27 08:47:59;;;;;;;;;;;35.00;21.20;;;;;;4990366;28;19917;-89
2022/04/27 08:50:25;;;;;;;;;;;35.20;21.50;;;;;;4982346;28;19926;-89
2022/04/27 08:52:51;;;;;;;;;;;35.30;19.80;;;;;;4977659;28;19922;-89
2022/04/27 08:55:17;;;;;;;;;;;35.30;19.70;;;;;;4992509;28;20585;-89
2022/04/27 08:57:43;;;;;;;;;;;35.20;19.60;;;;;;4992447;28;19992;-89
2022/04/27 09:00:13;;;;;;;;;;;35.10;19.80;;;;;;4986598;28;20452;-88
2022/04/27 09:02:39;;;;;;;;;;;35.20;19.70;;;;;;4992461;28;19914;-89
2022/04/27 09:05:05;;;;;;;;;;;35.30;19.80;;;;;;4978696;28;20293;-89
2022/04/27 09:07:37;;;;;;;;;;;35.30;19.60;;;;;;4992220;28;19913;-89
2022/04/27 09:10:03;;;;;;;;;;;35.50;19.70;;;;;;4991461;28;19922;-89
2022/04/27 09:12:28;;;;;;;;;;;35.70;19.90;;;;;;4991641;28;19982;-88
2022/04/27 09:14:58;;;;;;;;;;;35.80;19.60;;;;;;4990882;28;20409;-89
2022/04/27 09:23:02;;;;;;;;;;;34.80;18.50;;;;;;4992759;28;19973;-88
2022/04/27 09:25:34;;;;;;;;;;;34.40;18.80;;;;;;4983317;28;19953;-88
2022/04/27 09:28:00;;;;;;;;;;;34.30;19.20;;;;;;4993278;28;19972;-88
2022/04/27 09:30:26;;;;;;;;;;;34.30;19.20;;;;;;4975474;28;19926;-88
2022/04/27 09:32:52;;;;;;;;;;;34.70;19.50;;;;;;4992042;28;19967;-87
2022/04/27 09:35:34;;;;;;;;;;;35.00;18.70;;;;;;4994533;28;20374;-87
2022/04/27 09:38:13;;;;;;;;;;;35.20;18.40;;;;;;4975899;28;19914;-88
2022/04/27 09:40:42;;;;;;;;;;;35.20;18.10;;;;;;4974387;28;20337;-88
2022/04/27 09:43:09;;;;;;;;;;;35.30;18.40;;;;;;4975500;28;19921;-87
2022/04/27 09:45:34;;;;;;;;;;;35.40;17.70;;;;;;4993143;28;19918;-87
2022/04/27 09:48:03;;;;;;;;;;;35.50;17.70;;;;;;4993760;28;19920;-87
2022/04/27 09:50:50;;;;;;;;;;;35.70;18.10;;;;;;4993179;28;19922;-87
2022/04/27 09:53:16;;;;;;;;;;;36.20;18.40;;;;;;4997993;28;20384;-89
2022/04/27 09:55:47;;;;;;;;;;;36.60;16.90;;;;;;4971949;28;19961;-88
2022/04/27 09:58:14;;;;;;;;;;;36.50;16.20;;;;;;4990635;28;19941;-89
2022/04/27 10:00:43;;;;;;;;;;;36.40;16.80;;;;;;4985968;28;19926;-87
2022/04/27 10:03:19;;;;;;;;;;;36.40;17.00;;;;;;4991861;28;20013;-89
2022/04/27 10:05:45;;;;;;;;;;;36.60;17.20;;;;;;4994192;28;19918;-89
2022/04/27 10:08:10;;;;;;;;;;;36.80;17.20;;;;;;4975491;28;19913;-89
2022/04/27 10:10:40;;;;;;;;;;;37.20;17.30;;;;;;4974979;28;20005;-88
2022/04/27 10:13:10;;;;;;;;;;;37.50;17.00;;;;;;4992424;28;19909;-90
2022/04/27 10:15:36;;;;;;;;;;;37.90;17.00;;;;;;4993221;28;19959;-89
2022/04/27 10:18:16;;;;;;;;;;;38.20;16.80;;;;;;4991982;28;20396;-89
2022/04/27 10:20:42;;;;;;;;;;;38.50;16.80;;;;;;4975029;28;20008;-90
2022/04/27 10:23:15;;;;;;;;;;;38.30;16.00;;;;;;4977796;28;19968;-89
2022/04/27 10:25:41;;;;;;;;;;;38.10;15.60;;;;;;4996852;28;19922;-89
2022/04/27 10:28:18;;;;;;;;;;;37.80;15.30;;;;;;4994862;28;19918;-88
2022/04/27 10:30:44;;;;;;;;;;;37.60;15.70;;;;;;4972371;28;19922;-89
2022/04/27 10:33:09;;;;;;;;;;;37.70;15.80;;;;;;4981561;28;19925;-89
2022/04/27 10:35:36;;;;;;;;;;;37.60;15.90;;;;;;4978017;28;20035;-88
2022/04/27 10:38:05;;;;;;;;;;;37.80;16.30;;;;;;4982556;28;19917;-88
2022/04/27 10:40:30;;;;;;;;;;;38.10;16.40;;;;;;4997502;28;19922;-88
2022/04/27 10:43:03;;;;;;;;;;;38.20;15.40;;;;;;4996071;28;20017;-88
2022/04/27 10:45:28;;;;;;;;;;;37.80;14.80;;;;;;4993417;28;19930;-88
2022/04/27 10:47:54;;;;;;;;;;;37.30;14.80;;;;;;4995964;28;19921;-88
2022/04/27 10:50:21;;;;;;;;;;;36.70;15.10;;;;;;4997392;28;19961;-88
2022/04/27 10:52:51;;;;;;;;;;;36.40;15.70;;;;;;4996800;28;20353;-87
2022/04/27 10:55:34;;;;;;;;;;;36.30;15.70;;;;;;4995603;28;20378;-88
2022/04/27 10:58:20;;;;;;;;;;;36.10;15.80;;;;;;4994536;28;20025;-88
2022/04/27 11:00:58;;;;;;;;;;;35.90;16.10;;;;;;4961007;28;19941;-88
2022/04/27 11:03:27;;;;;;;;;;;36.00;16.10;;;;;;4994112;28;20701;-88
2022/04/27 11:05:56;;;;;;;;;;;36.10;16.50;;;;;;4995274;28;20013;-88
2022/04/27 11:08:26;;;;;;;;;;;36.30;16.60;;;;;;4961974;28;20008;-89
2022/04/27 11:10:54;;;;;;;;;;;36.50;16.70;;;;;;4977594;28;19921;-89
2022/04/27 11:13:25;;;;;;;;;;;36.70;16.50;;;;;;4989633;28;19942;-87
2022/04/27 11:15:51;;;;;;;;;;;36.90;16.50;;;;;;4993442;28;19928;-89
2022/04/27 11:18:16;;;;;;;;;;;37.00;16.20;;;;;;4995343;28;19913;-88
2022/04/27 11:20:43;;;;;;;;;;;37.00;16.20;;;;;;4977379;28;20440;-89
2022/04/27 11:23:20;;;;;;;;;;;37.10;16.40;;;;;;4981307;28;19976;-88
2022/04/27 11:25:49;;;;;;;;;;;37.30;16.60;;;;;;4993874;28;19925;-88
2022/04/27 11:28:15;;;;;;;;;;;37.60;16.60;;;;;;4998231;28;19917;-89
2022/04/27 11:30:40;;;;;;;;;;;37.80;16.40;;;;;;4996984;28;19947;-87
2022/04/27 11:33:06;;;;;;;;;;;38.10;16.30;;;;;;4995596;28;20361;-88
2022/04/27 11:35:44;;;;;;;;;;;38.20;15.20;;;;;;4995205;28;19917;-88
2022/04/27 11:38:10;;;;;;;;;;;37.70;14.90;;;;;;4995526;28;20313;-88
2022/04/27 11:40:37;;;;;;;;;;;37.30;15.30;;;;;;4978268;28;20020;-87
2022/04/27 11:43:04;;;;;;;;;;;37.00;15.50;;;;;;4999329;28;20269;-88
2022/04/27 11:45:42;;;;;;;;;;;36.90;15.70;;;;;;4978636;28;19932;-87
2022/04/27 11:48:10;;;;;;;;;;;36.90;16.20;;;;;;4982615;28;19917;-88
2022/04/27 11:50:37;;;;;;;;;;;37.10;16.10;;;;;;4995343;28;19921;-87
2022/04/27 11:53:03;;;;;;;;;;;37.00;15.80;;;;;;4999484;28;19949;-88
2022/04/27 11:55:29;;;;;;;;;;;36.70;15.70;;;;;;4999694;28;19925;-87
2022/04/27 11:57:55;;;;;;;;;;;36.30;16.00;;;;;;4996307;28;19913;-89
2022/04/27 12:00:21;;;;;;;;;;;36.00;16.20;;;;;;4994064;28;19929;-87
2022/04/27 12:02:47;;;;;;;;;;;35.80;16.40;;;;;;4978408;28;19920;-87
2022/04/27 12:05:16;;;;;;;;;;;35.50;16.60;;;;;;4978136;28;20353;-88
2022/04/27 12:07:47;;;;;;;;;;;35.50;16.70;;;;;;4995856;28;19922;-92
2022/04/27 12:10:15;;;;;;;;;;;35.60;16.60;;;;;;4977639;28;20297;-87
2022/04/27 12:12:41;;;;;;;;;;;35.70;16.70;;;;;;4992756;28;20009;-87
2022/04/27 12:15:11;;;;;;;;;;;36.00;16.90;;;;;;4995480;28;19957;-88
2022/04/27 12:17:56;;;;;;;;;;;36.30;17.00;;;;;;4987968;28;20385;-88
2022/04/27 12:20:22;;;;;;;;;;;36.70;16.50;;;;;;4994355;28;19952;-88
2022/04/27 12:22:51;;;;;;;;;;;36.40;16.20;;;;;;4999941;28;19910;-88
2022/04/27 12:25:17;;;;;;;;;;;36.10;16.30;;;;;;4998351;28;19925;-87
2022/04/27 12:27:42;;;;;;;;;;;35.90;16.70;;;;;;4997656;28;19910;-87
2022/04/27 12:30:08;;;;;;;;;;;35.70;16.60;;;;;;4996820;28;20271;-87
2022/04/27 12:32:34;;;;;;;;;;;35.60;16.60;;;;;;4982244;28;20016;-88
2022/04/27 12:37:50;;;;;;;;;;;35.60;17.10;;;;;;5000755;28;19916;-88
2022/04/27 12:40:17;;;;;;;;;;;35.50;16.80;;;;;;4997185;28;19922;-88
2022/04/27 12:43:06;;;;;;;;;;;35.10;16.70;;;;;;4983991;28;19918;-88
2022/04/27 12:45:35;;;;;;;;;;;34.50;16.90;;;;;;4986670;28;19917;-87
2022/04/27 12:48:03;;;;;;;;;;;33.30;17.90;;;;;;4990725;28;19913;-88
2022/04/27 12:50:31;;;;;;;;;;;32.60;18.60;;;;;;5007453;28;19922;-88
2022/04/27 12:53:12;;;;;;;;;;;32.10;19.00;;;;;;4987054;28;19921;-88
2022/04/27 12:55:40;;;;;;;;;;;32.30;19.10;;;;;;5004852;28;19918;-86
2022/04/27 12:58:06;;;;;;;;;;;32.50;19.10;;;;;;5004465;28;19913;-87
2022/04/27 13:00:43;;;;;;;;;;;32.80;18.90;;;;;;4998027;28;19936;-87
2022/04/27 13:03:09;;;;;;;;;;;32.80;19.00;;;;;;4980874;28;20408;-88
2022/04/27 13:05:37;;;;;;;;;;;33.00;19.00;;;;;;5000940;28;19952;-86
2022/04/27 13:08:05;;;;;;;;;;;33.00;18.80;;;;;;4984927;28;19945;-87
2022/04/27 13:13:22;;;;;;;;;;;33.20;19.10;;;;;;5000785;28;19974;-88
2022/04/27 13:15:49;;;;;;;;;;;33.20;18.90;;;;;;5000288;28;19925;-88
2022/04/27 13:18:17;;;;;;;;;;;33.30;19.00;;;;;;4984911;28;20393;-88
2022/04/27 13:20:44;;;;;;;;;;;33.30;18.80;;;;;;4994678;28;20341;-88
2022/04/27 13:23:10;;;;;;;;;;;33.20;18.60;;;;;;4981698;28;19921;-87
2022/04/27 13:25:36;;;;;;;;;;;33.30;18.80;;;;;;4979494;28;20006;-87
2022/04/27 13:28:01;;;;;;;;;;;33.30;18.80;;;;;;4995787;28;19920;-88
2022/04/27 13:30:27;;;;;;;;;;;32.80;18.90;;;;;;4977769;28;20377;-88
2022/04/27 13:32:53;;;;;;;;;;;32.20;19.30;;;;;;4998009;28;19922;-87
2022/04/27 13:35:18;;;;;;;;;;;32.10;19.60;;;;;;4962853;28;19918;-88
2022/04/27 13:37:44;;;;;;;;;;;32.30;19.60;;;;;;4979632;28;19993;-88
2022/04/27 13:40:10;;;;;;;;;;;32.40;19.60;;;;;;4979390;28;19961;-88
2022/04/27 13:42:37;;;;;;;;;;;32.50;19.70;;;;;;4995168;28;19928;-87
2022/04/27 13:45:03;;;;;;;;;;;32.60;19.50;;;;;;4978198;28;19924;-87
2022/04/27 13:47:31;;;;;;;;;;;32.70;19.50;;;;;;4978173;28;19918;-87
2022/04/27 13:49:56;;;;;;;;;;;32.20;19.70;;;;;;4978208;28;19917;-88
2022/04/27 13:52:22;;;;;;;;;;;31.30;20.20;;;;;;4993969;28;19922;-88
2022/04/27 13:54:47;;;;;;;;;;;31.00;20.60;;;;;;4991106;28;19988;-87
2022/04/27 13:57:13;;;;;;;;;;;30.70;20.70;;;;;;4992309;28;19932;-88
2022/04/27 13:59:38;;;;;;;;;;;30.50;20.80;;;;;;4999762;28;20005;-87
2022/04/27 14:02:05;;;;;;;;;;;30.30;21.10;;;;;;4981837;28;19957;-87
2022/04/27 14:04:31;;;;;;;;;;;30.20;21.50;;;;;;4979300;28;19981;-86
2022/04/27 14:06:56;;;;;;;;;;;29.80;21.60;;;;;;4996828;28;19921;-87
2022/04/27 14:09:22;;;;;;;;;;;29.40;22.00;;;;;;4999025;28;19917;-87
2022/04/27 14:14:32;;;;;;;;;;;28.40;22.80;;;;;;4997759;28;19990;-87
2022/04/27 14:19:42;;;;;;;;;;;27.40;23.50;;;;;;4996338;28;19928;-87
2022/04/27 14:22:07;;;;;;;;;;;27.10;24.20;;;;;;4978472;28;20788;-87
2022/04/27 14:24:33;;;;;;;;;;;26.80;24.40;;;;;;4995593;28;20401;-87
2022/04/27 14:26:58;;;;;;;;;;;26.70;24.70;;;;;;4973546;28;20069;-87
2022/04/27 14:29:23;;;;;;;;;;;26.60;25.00;;;;;;4995644;28;19922;-88
2022/04/27 14:31:49;;;;;;;;;;;26.50;25.00;;;;;;4994894;28;20939;-88
2022/04/27 14:34:14;;;;;;;;;;;26.30;25.20;;;;;;5000256;28;20393;-87
2022/04/27 14:36:40;;;;;;;;;;;26.20;25.80;;;;;;4996895;28;19918;-88
2022/04/27 14:39:06;;;;;;;;;;;26.20;26.00;;;;;;4978688;28;19918;-87
2022/04/27 14:41:31;;;;;;;;;;;26.10;26.10;;;;;;4993068;28;19945;-88
2022/04/27 14:43:57;;;;;;;;;;;26.00;26.00;;;;;;4994679;28;20601;-87
2022/04/27 14:46:23;;;;;;;;;;;25.70;25.80;;;;;;4996014;28;19918;-86
2022/04/27 14:48:49;;;;;;;;;;;25.50;26.40;;;;;;4991421;28;19918;-88